createdAt,value
2023-05-22T00:01:46.664Z,8.48
2023-05-22T00:04:21.512Z,8.70
2023-05-22T00:06:49.588Z,9.25
2023-05-22T00:09:17.405Z,9.18
2023-05-22T00:11:45.144Z,9.13
2023-05-22T00:14:13.733Z,9.20
2023-05-22T00:16:41.722Z,9.02
2023-05-22T00:19:13.420Z,9.48
2023-05-22T00:21:41.518Z,9.43
2023-05-22T00:24:09.543Z,10.02
2023-05-22T00:26:37.313Z,9.05
2023-05-22T00:29:05.901Z,8.82
2023-05-22T00:31:33.739Z,9.20
2023-05-22T00:34:01.518Z,9.05
2023-05-22T00:36:30.695Z,9.53
2023-05-22T00:38:58.385Z,9.27
2023-05-22T00:41:26.494Z,9.07
2023-05-22T00:43:54.725Z,9.50
2023-05-22T00:46:23.080Z,9.20
2023-05-22T00:48:52.523Z,9.38
2023-05-22T00:51:21.722Z,9.13
2023-05-22T00:53:51.419Z,9.60
2023-05-22T00:56:19.831Z,9.40
2023-05-22T00:58:47.833Z,9.18
2023-05-22T01:01:16.144Z,9.85
2023-05-22T01:03:44.918Z,9.20
2023-05-22T01:06:14.081Z,10.00
2023-05-22T01:08:42.138Z,9.48
2023-05-22T01:11:15.358Z,8.68
2023-05-22T01:13:47.939Z,9.40
2023-05-22T01:16:38.314Z,9.80
2023-05-22T01:19:12.542Z,9.45
2023-05-22T01:21:46.363Z,9.07
2023-05-22T01:24:37.188Z,9.02
2023-05-22T01:27:25.932Z,9.43
2023-05-22T01:30:05.232Z,9.65
2023-05-22T01:32:36.055Z,9.27
2023-05-22T01:35:08.539Z,8.60
2023-05-22T01:37:37.417Z,8.80
2023-05-22T01:40:07.431Z,9.43
2023-05-22T01:42:35.372Z,8.30
2023-05-22T01:45:03.235Z,8.50
2023-05-22T01:47:31.457Z,8.07
2023-05-22T01:50:00.622Z,8.35
2023-05-22T01:52:34.501Z,7.82
2023-05-22T01:55:07.587Z,7.65
2023-05-22T01:57:39.255Z,8.80
2023-05-22T02:00:10.777Z,8.48
2023-05-22T02:02:39.977Z,7.70
2023-05-22T02:05:11.254Z,8.43
2023-05-22T02:07:39.637Z,7.68
2023-05-22T02:10:09.563Z,8.00
2023-05-22T02:12:37.649Z,8.10
2023-05-22T02:15:07.358Z,7.13
2023-05-22T02:17:40.259Z,8.18
2023-05-22T02:20:14.382Z,7.90
2023-05-22T02:22:43.770Z,7.28
2023-05-22T02:25:14.472Z,7.43
2023-05-22T02:27:43.204Z,7.70
2023-05-22T02:30:11.845Z,7.10
2023-05-22T02:32:40.213Z,8.13
2023-05-22T02:35:10.243Z,7.60
2023-05-22T02:37:37.999Z,7.65
2023-05-22T02:40:07.241Z,8.07
2023-05-22T02:42:35.354Z,8.40
2023-05-22T02:45:03.165Z,7.50
2023-05-22T02:47:31.025Z,7.88
2023-05-22T02:49:59.212Z,7.82
2023-05-22T02:52:28.379Z,7.93
2023-05-22T02:54:56.140Z,7.30
2023-05-22T02:57:23.867Z,8.45
2023-05-22T02:59:52.675Z,7.65
2023-05-22T03:02:20.491Z,8.45
2023-05-22T03:04:48.253Z,7.90
2023-05-22T03:07:15.947Z,8.95
2023-05-22T03:09:45.005Z,8.50
2023-05-22T03:12:12.642Z,9.05
2023-05-22T03:14:40.459Z,9.10
2023-05-22T03:17:08.119Z,8.52
2023-05-22T03:19:35.841Z,8.70
2023-05-22T03:22:03.900Z,9.20
2023-05-22T03:24:32.322Z,8.25
2023-05-22T03:27:11.656Z,7.78
2023-05-22T03:29:39.351Z,8.30
2023-05-22T03:32:07.442Z,8.70
2023-05-22T03:34:35.167Z,7.32
2023-05-22T03:37:02.863Z,6.97
2023-05-22T03:39:30.545Z,6.90
2023-05-22T03:42:00.704Z,6.32
2023-05-22T03:44:29.878Z,6.50
2023-05-22T03:46:57.552Z,6.40
2023-05-22T03:49:25.378Z,6.50
2023-05-22T03:51:53.043Z,6.53
2023-05-22T03:54:21.048Z,6.50
2023-05-22T03:56:48.768Z,6.53
2023-05-22T03:59:16.577Z,5.90
2023-05-22T04:01:46.546Z,7.07
2023-05-22T04:04:14.382Z,6.85
2023-05-22T04:06:43.918Z,7.28
2023-05-22T04:09:12.692Z,7.05
2023-05-22T04:11:42.174Z,7.30
2023-05-22T04:14:10.301Z,6.15
2023-05-22T04:16:37.979Z,6.83
2023-05-22T04:19:09.568Z,7.15
2023-05-22T04:21:38.294Z,5.97
2023-05-22T04:24:09.487Z,7.05
2023-05-22T04:26:37.305Z,5.90
2023-05-22T04:29:10.274Z,5.50
2023-05-22T04:31:38.269Z,6.47
2023-05-22T04:34:07.558Z,5.80
2023-05-22T04:36:35.956Z,6.20
2023-05-22T04:39:04.058Z,5.20
2023-05-22T04:41:32.447Z,6.55
2023-05-22T04:44:00.524Z,7.85
2023-05-22T04:46:28.831Z,7.25
2023-05-22T04:48:56.573Z,5.60
2023-05-22T04:51:25.621Z,5.70
2023-05-22T04:53:55.643Z,6.55
2023-05-22T04:56:35.528Z,7.10
2023-05-22T04:59:09.068Z,6.65
2023-05-22T05:01:37.998Z,6.43
2023-05-22T05:04:29.390Z,6.85
2023-05-22T05:06:58.655Z,5.90
2023-05-22T05:09:26.422Z,5.97
2023-05-22T05:11:54.337Z,7.75
2023-05-22T05:14:22.275Z,8.00
2023-05-22T05:16:51.726Z,8.70
2023-05-22T05:19:21.444Z,7.07
2023-05-22T05:21:49.655Z,7.80
2023-05-22T05:24:19.012Z,7.80
2023-05-22T05:26:47.001Z,9.17
2023-05-22T05:29:14.668Z,7.50
2023-05-22T05:31:42.595Z,7.97
2023-05-22T05:34:10.315Z,7.45
2023-05-22T05:36:38.098Z,7.30
2023-05-22T05:39:06.131Z,7.95
2023-05-22T05:41:35.378Z,7.75
2023-05-22T05:44:03.057Z,8.48
2023-05-22T05:46:30.780Z,8.48
2023-05-22T05:48:59.327Z,8.40
2023-05-22T05:51:27.083Z,8.65
2023-05-22T05:53:54.698Z,8.80
2023-05-22T05:56:22.675Z,9.05
2023-05-22T05:59:22.908Z,9.20
2023-05-22T06:01:50.623Z,9.02
2023-05-22T06:04:18.275Z,9.30
2023-05-22T06:06:47.715Z,9.00
2023-05-22T06:09:15.393Z,8.60
2023-05-22T06:11:43.046Z,9.07
2023-05-22T06:14:11.064Z,9.20
2023-05-22T06:16:40.722Z,9.50
2023-05-22T06:19:08.731Z,9.18
2023-05-22T06:21:36.455Z,10.00
2023-05-22T06:24:04.142Z,9.55
2023-05-22T06:26:31.805Z,10.17
2023-05-22T06:28:59.428Z,10.60
2023-05-22T06:31:28.092Z,9.85
2023-05-22T06:33:57.313Z,10.03
2023-05-22T06:36:24.991Z,9.00
2023-05-22T06:38:54.645Z,9.95
2023-05-22T06:41:22.837Z,10.35
2023-05-22T06:43:50.637Z,9.98
2023-05-22T06:46:18.334Z,10.13
2023-05-22T06:48:46.063Z,9.70
2023-05-22T06:51:15.293Z,10.18
2023-05-22T06:53:43.022Z,10.13
2023-05-22T06:56:10.797Z,10.13
2023-05-22T06:58:52.458Z,10.77
2023-05-22T07:01:20.246Z,10.35
2023-05-22T07:03:47.948Z,9.17
2023-05-22T07:06:18.296Z,9.75
2023-05-22T07:08:46.291Z,10.15
2023-05-22T07:11:14.016Z,9.95
2023-05-22T07:13:41.746Z,10.23
2023-05-22T07:16:09.497Z,9.73
2023-05-22T07:18:37.206Z,9.77
2023-05-22T07:21:05.444Z,10.23
2023-05-22T07:23:34.658Z,10.80
2023-05-22T07:26:02.338Z,9.33
2023-05-22T07:28:30.628Z,10.48
2023-05-22T07:30:58.346Z,9.93
2023-05-22T07:33:26.792Z,9.38
2023-05-22T07:35:54.479Z,9.93
2023-05-22T07:38:22.365Z,10.63
2023-05-22T07:40:51.504Z,10.65
2023-05-22T07:43:19.213Z,10.60
2023-05-22T07:45:46.856Z,10.40
2023-05-22T07:48:14.685Z,9.55
2023-05-22T07:50:44.844Z,10.15
2023-05-22T07:53:12.780Z,10.90
2023-05-22T07:55:41.030Z,10.77
2023-05-22T07:58:10.846Z,10.65
2023-05-22T08:00:38.594Z,10.80
2023-05-22T08:03:06.727Z,10.88
2023-05-22T08:05:34.494Z,11.82
2023-05-22T08:08:03.251Z,11.57
2023-05-22T08:10:46.426Z,12.05
2023-05-22T08:13:20.716Z,11.65
2023-05-22T08:15:48.357Z,12.13
2023-05-22T08:18:16.083Z,12.57
2023-05-22T08:20:43.743Z,12.18
2023-05-22T08:23:11.486Z,11.68
2023-05-22T08:25:39.189Z,11.57
2023-05-22T08:28:07.535Z,11.45
2023-05-22T08:30:37.356Z,11.50
2023-05-22T08:33:05.642Z,11.13
2023-05-22T08:35:33.447Z,11.32
2023-05-22T08:38:01.375Z,10.77
2023-05-22T08:40:35.612Z,12.25
2023-05-22T08:43:03.404Z,11.75
2023-05-22T08:45:34.139Z,11.35
2023-05-22T08:48:06.447Z,12.13
2023-05-22T08:50:36.907Z,11.53
2023-05-22T08:53:06.625Z,11.47
2023-05-22T08:55:34.735Z,10.88
2023-05-22T08:58:02.489Z,11.13
2023-05-22T09:00:30.429Z,11.30
2023-05-22T09:02:58.794Z,10.48
2023-05-22T09:05:28.134Z,10.70
2023-05-22T09:07:58.423Z,11.80
2023-05-22T09:10:30.811Z,10.60
2023-05-22T09:13:04.274Z,11.20
2023-05-22T09:15:33.064Z,11.77
2023-05-22T09:18:00.797Z,11.82
2023-05-22T09:20:29.901Z,12.10
2023-05-22T09:22:57.984Z,12.30
2023-05-22T09:25:26.516Z,12.93
2023-05-22T09:27:54.675Z,13.13
2023-05-22T09:30:22.382Z,12.95
2023-05-22T09:32:50.403Z,13.07
2023-05-22T09:35:19.733Z,12.90
2023-05-22T09:37:51.086Z,12.40
2023-05-22T09:40:18.804Z,12.35
2023-05-22T09:42:46.701Z,12.82
2023-05-22T09:45:14.505Z,12.32
2023-05-22T09:47:42.302Z,11.07
2023-05-22T09:50:10.844Z,12.30
2023-05-22T09:52:39.092Z,12.65
2023-05-22T09:55:09.688Z,13.07
2023-05-22T09:57:43.647Z,13.30
2023-05-22T10:00:15.191Z,13.00
2023-05-22T10:02:46.061Z,13.90
2023-05-22T10:05:21.174Z,13.65
2023-05-22T10:07:51.792Z,14.48
2023-05-22T10:10:22.776Z,13.55
2023-05-22T10:12:53.964Z,13.50
2023-05-22T10:15:22.254Z,13.15
2023-05-22T10:17:50.832Z,13.38
2023-05-22T10:20:18.601Z,14.07
2023-05-22T10:22:48.866Z,13.87
2023-05-22T10:25:18.246Z,13.55
2023-05-22T10:27:47.603Z,14.40
2023-05-22T10:30:21.382Z,13.60
2023-05-22T10:32:53.755Z,14.35
2023-05-22T10:35:23.992Z,15.27
2023-05-22T10:37:54.306Z,14.20
2023-05-22T10:40:29.076Z,14.30
2023-05-22T10:43:02.722Z,14.75
2023-05-22T10:45:31.664Z,15.57
2023-05-22T10:48:06.814Z,16.13
2023-05-22T10:50:34.788Z,14.38
2023-05-22T10:56:38.901Z,16.13
2023-05-22T10:59:08.607Z,13.77
2023-05-22T11:01:37.714Z,14.18
2023-05-22T11:04:12.896Z,14.75
2023-05-22T11:06:42.647Z,14.68
2023-05-22T11:09:18.949Z,13.60
2023-05-22T11:11:46.956Z,13.23
2023-05-22T11:14:17.688Z,12.90
2023-05-22T11:16:45.589Z,12.77
2023-05-22T11:19:23.217Z,13.05
2023-05-22T11:21:51.954Z,13.48
2023-05-22T11:24:20.074Z,13.50
2023-05-22T11:27:02.873Z,12.02
2023-05-22T11:29:32.301Z,13.07
2023-05-22T11:32:00.883Z,11.63
2023-05-22T11:34:28.954Z,12.25
2023-05-22T11:36:59.432Z,12.07
2023-05-22T11:39:27.278Z,12.50
2023-05-22T11:41:55.197Z,12.85
2023-05-22T11:44:22.878Z,12.83
2023-05-22T11:46:52.122Z,11.18
2023-05-22T11:49:23.961Z,11.13
2023-05-22T11:51:52.979Z,10.63
2023-05-22T11:54:22.196Z,10.57
2023-05-22T11:56:49.906Z,12.43
2023-05-22T11:59:17.641Z,13.13
2023-05-22T12:01:45.428Z,11.88
2023-05-22T12:04:15.743Z,12.15
2023-05-22T12:06:43.689Z,11.82
2023-05-22T12:09:11.637Z,12.87
2023-05-22T12:11:39.472Z,12.00
2023-05-22T12:14:07.555Z,10.93
2023-05-22T12:16:36.457Z,10.73
2023-05-22T12:19:07.800Z,10.73
2023-05-22T12:21:37.620Z,11.95
2023-05-22T12:24:06.192Z,11.30
2023-05-22T12:26:34.239Z,11.60
2023-05-22T12:29:02.708Z,11.25
2023-05-22T12:31:35.910Z,10.68
2023-05-22T12:34:07.589Z,10.63
2023-05-22T12:36:40.221Z,10.15
2023-05-22T12:39:12.463Z,11.35
2023-05-22T12:41:40.247Z,10.57
2023-05-22T12:44:07.930Z,9.93
2023-05-22T12:46:36.075Z,9.98
2023-05-22T12:49:03.870Z,8.48
2023-05-22T12:51:33.232Z,9.82
2023-05-22T12:54:02.790Z,10.43
2023-05-22T12:56:30.676Z,10.10
2023-05-22T12:58:58.538Z,9.55
2023-05-22T13:01:27.284Z,9.13
2023-05-22T13:03:55.119Z,9.32
2023-05-22T13:06:22.842Z,7.75
2023-05-22T13:08:50.530Z,8.85
2023-05-22T13:11:23.427Z,8.23
2023-05-22T13:13:51.204Z,9.13
2023-05-22T13:16:19.129Z,8.98
2023-05-22T13:18:47.268Z,7.50
2023-05-22T13:21:15.285Z,10.02
2023-05-22T13:23:43.326Z,8.20
2023-05-22T13:26:11.069Z,8.45
2023-05-22T13:28:40.209Z,7.75
2023-05-22T13:31:08.268Z,7.40
2023-05-22T13:33:36.040Z,7.57
2023-05-22T13:36:03.755Z,6.68
2023-05-22T13:38:31.459Z,6.85
2023-05-22T13:40:59.252Z,6.65
2023-05-22T13:43:27.140Z,6.70
2023-05-22T13:45:56.461Z,6.35
2023-05-22T13:48:24.146Z,5.43
2023-05-22T13:50:52.417Z,7.15
2023-05-22T13:53:20.228Z,6.07
2023-05-22T13:55:47.904Z,6.50
2023-05-22T13:58:15.636Z,6.68
2023-05-22T14:00:43.408Z,7.28
2023-05-22T14:03:17.422Z,7.30
2023-05-22T14:05:45.728Z,7.15
2023-05-22T14:08:13.713Z,6.72
2023-05-22T14:10:42.105Z,5.90
2023-05-22T14:13:09.847Z,6.55
2023-05-22T14:15:37.616Z,7.85
2023-05-22T14:18:05.495Z,6.97
2023-05-22T14:20:34.670Z,7.60
2023-05-22T14:23:02.342Z,7.07
2023-05-22T14:25:30.035Z,8.70
2023-05-22T14:27:57.869Z,8.32
2023-05-22T14:30:25.786Z,8.15
2023-05-22T14:32:53.632Z,7.55
2023-05-22T14:35:21.447Z,8.23
2023-05-22T14:37:50.814Z,7.88
2023-05-22T14:40:18.613Z,8.90
2023-05-22T14:42:46.619Z,9.25
2023-05-22T14:45:14.431Z,8.35
2023-05-22T14:47:43.195Z,8.40
2023-05-22T14:50:18.974Z,8.18
2023-05-22T14:52:47.925Z,8.13
2023-05-22T14:55:17.543Z,8.55
2023-05-22T14:57:45.486Z,8.68
2023-05-22T15:00:14.356Z,8.23
2023-05-22T15:02:42.131Z,8.00
2023-05-22T15:05:11.351Z,7.93
2023-05-22T15:07:44.586Z,7.25
2023-05-22T15:10:14.379Z,7.82
2023-05-22T15:12:43.483Z,7.65
2023-05-22T15:15:12.085Z,7.55
2023-05-22T15:17:42.694Z,6.80
2023-05-22T15:20:11.671Z,6.72
2023-05-22T15:22:39.418Z,7.13
2023-05-22T15:25:08.436Z,8.00
2023-05-22T15:27:36.761Z,7.43
2023-05-22T15:30:09.539Z,8.32
2023-05-22T15:32:37.547Z,7.68
2023-05-22T15:35:06.676Z,7.40
2023-05-22T15:37:36.336Z,8.02
2023-05-22T15:40:05.835Z,8.18
2023-05-22T15:42:34.994Z,7.40
2023-05-22T15:45:02.750Z,7.70
2023-05-22T15:47:31.926Z,7.82
2023-05-22T15:50:00.130Z,7.53
2023-05-22T15:52:27.920Z,7.88
2023-05-22T15:54:57.077Z,8.20
2023-05-22T15:57:25.073Z,8.85
2023-05-22T15:59:52.771Z,8.13
2023-05-22T16:02:20.504Z,8.40
2023-05-22T16:04:51.321Z,8.70
2023-05-22T16:07:20.263Z,8.55
2023-05-22T16:09:50.096Z,8.52
2023-05-22T16:12:18.191Z,9.50
2023-05-22T16:14:45.980Z,9.15
2023-05-22T16:17:13.737Z,8.68
2023-05-22T16:19:41.443Z,8.70
2023-05-22T16:22:10.624Z,9.37
2023-05-22T16:24:38.411Z,9.07
2023-05-22T16:27:07.360Z,9.07
2023-05-22T16:29:35.098Z,9.63
2023-05-22T16:32:03.728Z,9.40
2023-05-22T16:34:33.839Z,9.87
2023-05-22T16:37:01.899Z,9.05
2023-05-22T16:39:31.034Z,9.52
2023-05-22T16:41:58.758Z,8.48
2023-05-22T16:44:26.557Z,8.35
2023-05-22T16:46:54.290Z,10.93
2023-05-22T16:49:22.008Z,9.80
2023-05-22T16:51:49.697Z,10.65
2023-05-22T16:54:17.473Z,9.90
2023-05-22T16:56:46.589Z,8.48
2023-05-22T16:59:14.286Z,7.03
2023-05-22T17:01:42.361Z,6.67
2023-05-22T17:04:11.257Z,5.97
2023-05-22T17:06:39.604Z,5.68
2023-05-22T17:09:08.113Z,6.70
2023-05-22T17:11:35.990Z,6.93
2023-05-22T17:14:05.376Z,7.35
2023-05-22T17:16:33.467Z,7.82
2023-05-22T17:19:01.876Z,8.35
2023-05-22T17:21:30.769Z,8.60
2023-05-22T17:23:58.596Z,9.70
2023-05-22T17:26:27.437Z,8.85
2023-05-22T17:28:55.093Z,9.63
2023-05-22T17:31:24.171Z,10.60
2023-05-22T17:33:51.874Z,11.60
2023-05-22T17:36:20.038Z,11.75
2023-05-22T17:38:47.693Z,13.30
2023-05-22T17:41:15.545Z,13.73
2023-05-22T17:43:43.229Z,12.57
2023-05-22T17:46:10.979Z,13.30
2023-05-22T17:48:40.989Z,13.32
2023-05-22T17:51:08.691Z,14.23
2023-05-22T17:53:38.520Z,12.98
2023-05-22T17:58:52.614Z,13.52
2023-05-22T18:01:20.560Z,13.85
2023-05-22T18:03:49.843Z,13.85
2023-05-22T18:06:17.639Z,13.60
2023-05-22T18:08:45.558Z,14.13
2023-05-22T18:11:13.240Z,13.60
2023-05-22T18:13:40.908Z,14.43
2023-05-22T18:16:08.859Z,14.32
2023-05-22T18:18:36.712Z,14.07
2023-05-22T18:21:06.593Z,13.77
2023-05-22T18:23:34.337Z,14.77
2023-05-22T18:26:03.343Z,13.98
2023-05-22T18:28:31.011Z,13.40
2023-05-22T18:31:00.361Z,12.80
2023-05-22T18:33:28.478Z,11.10
2023-05-22T18:35:57.294Z,9.00
2023-05-22T18:38:27.215Z,7.85
2023-05-22T18:40:55.675Z,7.18
2023-05-22T18:43:27.765Z,6.50
2023-05-22T18:45:56.839Z,6.97
2023-05-22T18:48:24.915Z,6.38
2023-05-22T18:50:52.833Z,6.07
2023-05-22T18:53:20.573Z,5.70
2023-05-22T18:55:49.858Z,5.93
2023-05-22T18:58:17.547Z,4.80
2023-05-22T19:00:45.662Z,5.90
2023-05-22T19:03:14.062Z,5.72
2023-05-22T19:05:41.822Z,4.93
2023-05-22T19:08:09.625Z,5.32
2023-05-22T19:10:37.397Z,5.28
2023-05-22T19:13:06.550Z,5.20
2023-05-22T19:15:35.820Z,5.07
2023-05-22T19:18:03.612Z,5.15
2023-05-22T19:20:31.350Z,5.18
2023-05-22T19:22:59.147Z,5.00
2023-05-22T19:25:27.009Z,5.40
2023-05-22T19:27:54.721Z,4.85
2023-05-22T19:30:24.431Z,5.05
2023-05-22T19:32:55.632Z,5.10
2023-05-22T19:35:23.488Z,4.95
2023-05-22T19:37:51.164Z,4.85
2023-05-22T19:40:18.946Z,4.85
2023-05-22T19:42:46.665Z,5.00
2023-05-22T19:45:14.410Z,4.50
2023-05-22T19:47:43.585Z,4.93
2023-05-22T19:50:12.395Z,4.55
2023-05-22T19:52:40.201Z,4.68
2023-05-22T19:55:09.478Z,4.68
2023-05-22T19:57:37.202Z,4.63
2023-05-22T20:00:07.475Z,4.55
2023-05-22T20:02:35.212Z,4.10
2023-05-22T20:05:04.488Z,4.18
2023-05-22T20:07:32.410Z,4.00
2023-05-22T20:10:00.135Z,4.32
2023-05-22T20:12:27.831Z,3.60
2023-05-22T20:14:55.788Z,3.87
2023-05-22T20:17:23.557Z,4.10
2023-05-22T20:19:51.266Z,4.28
2023-05-22T20:22:20.405Z,3.90
2023-05-22T20:24:48.433Z,4.57
2023-05-22T20:27:31.133Z,3.77
2023-05-22T20:30:00.223Z,4.20
2023-05-22T20:32:28.429Z,3.97
2023-05-22T20:34:56.269Z,3.73
2023-05-22T20:37:26.443Z,4.45
2023-05-22T20:39:54.484Z,4.10
2023-05-22T20:42:22.391Z,4.03
2023-05-22T20:44:50.213Z,3.42
2023-05-22T20:47:17.854Z,4.28
2023-05-22T20:49:45.510Z,3.50
2023-05-22T20:52:13.337Z,3.83
2023-05-22T20:54:42.990Z,3.67
2023-05-22T20:57:10.655Z,3.90
2023-05-22T20:59:38.546Z,3.75
2023-05-22T21:02:07.305Z,3.80
2023-05-22T21:04:35.109Z,3.47
2023-05-22T21:07:03.315Z,3.45
2023-05-22T21:09:31.077Z,3.13
2023-05-22T21:12:00.163Z,3.60
2023-05-22T21:14:27.861Z,3.70
2023-05-22T21:16:55.782Z,3.60
2023-05-22T21:19:23.528Z,3.80
2023-05-22T21:21:51.195Z,3.42
2023-05-22T21:24:18.936Z,3.70
2023-05-22T21:26:46.640Z,3.93
2023-05-22T21:29:15.754Z,4.15
2023-05-22T21:31:43.447Z,4.13
2023-05-22T21:34:11.127Z,4.00
2023-05-22T21:36:38.803Z,4.50
2023-05-22T21:39:06.511Z,4.57
2023-05-22T21:41:34.695Z,4.72
2023-05-22T21:44:02.434Z,4.80
2023-05-22T21:46:31.524Z,4.50
2023-05-22T21:48:59.895Z,4.47
2023-05-22T21:51:27.622Z,4.37
2023-05-22T21:53:55.333Z,4.63
2023-05-22T21:56:23.033Z,4.47
2023-05-22T21:58:50.814Z,4.50
2023-05-22T22:01:18.574Z,4.47
2023-05-22T22:03:47.742Z,4.88
2023-05-22T22:06:15.530Z,4.40
2023-05-22T22:08:43.199Z,4.25
2023-05-22T22:11:10.880Z,4.57
2023-05-22T22:13:38.552Z,4.90
2023-05-22T22:16:06.527Z,5.03
2023-05-22T22:18:34.559Z,4.20
2023-05-22T22:21:03.626Z,4.90
2023-05-22T22:23:34.410Z,4.78
2023-05-22T22:26:02.104Z,4.80
2023-05-22T22:28:29.752Z,5.65
2023-05-22T22:30:57.456Z,5.07
2023-05-22T22:33:25.124Z,5.28
2023-05-22T22:35:53.103Z,5.35
2023-05-22T22:38:22.379Z,5.63
2023-05-22T22:40:50.064Z,5.43
2023-05-22T22:43:17.719Z,5.20
2023-05-22T22:45:45.488Z,6.07
2023-05-22T22:48:13.334Z,5.70
2023-05-22T22:50:41.548Z,5.45
2023-05-22T22:53:09.615Z,6.05
2023-05-22T22:55:39.021Z,6.15
2023-05-22T22:58:07.842Z,6.60
2023-05-22T23:00:36.640Z,6.55
2023-05-22T23:03:04.527Z,6.18
2023-05-22T23:05:32.271Z,6.60
2023-05-22T23:08:01.958Z,7.05
2023-05-22T23:10:29.889Z,6.97
2023-05-22T23:12:59.237Z,6.80
2023-05-22T23:15:27.059Z,6.15
2023-05-22T23:17:54.759Z,7.25
2023-05-22T23:20:22.443Z,6.13
2023-05-22T23:22:50.127Z,6.78
2023-05-22T23:25:17.800Z,7.15
2023-05-22T23:27:45.672Z,5.93
2023-05-22T23:30:15.031Z,6.87
2023-05-22T23:32:42.731Z,7.60
2023-05-22T23:35:11.247Z,7.35
2023-05-22T23:37:38.906Z,6.95
2023-05-22T23:40:08.831Z,6.82
2023-05-22T23:42:37.412Z,6.30
2023-05-22T23:45:05.642Z,6.10
2023-05-22T23:47:34.719Z,6.10
2023-05-22T23:50:02.416Z,4.72
2023-05-22T23:52:30.090Z,5.40
2023-05-22T23:54:57.950Z,4.68
2023-05-22T23:57:25.683Z,4.25
2023-05-22T23:59:53.371Z,4.88
